Time;durP1;ratioP1;P1;durP2;ratioP2;P2;SDS_P1;SDS_P2;PMS_P1;PMS_P2;Temp;Humidity;BMP_temperature;BMP_pressure;BME280_temperature;BME280_humidity;BME280_pressure;Samples;Min_cycle;Max_cycle;Signal;HPM_P1;HPM_P2
2022/05/11 00:02:32;;;;;;;11.40;6.80;;;15.30;99.90;;;;;;5030737;28;20113;-70
2022/05/11 00:05:36;;;;;;;10.15;5.55;;;15.30;99.90;;;;;;5018772;28;21000;-70
2022/05/11 00:08:40;;;;;;;11.20;6.20;;;15.30;99.90;;;;;;5030937;28;20491;-70
2022/05/11 00:11:44;;;;;;;12.02;5.72;;;15.30;99.90;;;;;;5030695;28;20048;-70
2022/05/11 00:14:48;;;;;;;15.98;6.55;;;15.30;99.90;;;;;;5030428;28;20056;-70
2022/05/11 00:17:52;;;;;;;18.35;6.38;;;15.20;99.90;;;;;;5030430;28;20056;-70
2022/05/11 00:20:57;;;;;;;17.80;6.28;;;15.20;99.90;;;;;;5030412;28;20056;-70
2022/05/11 00:24:02;;;;;;;16.35;5.90;;;15.10;99.90;;;;;;5030636;28;20493;-70
2022/05/11 00:27:06;;;;;;;12.27;5.85;;;15.00;99.90;;;;;;5029699;28;20049;-70
2022/05/11 00:30:11;;;;;;;15.00;6.30;;;15.00;99.90;;;;;;5030569;28;20052;-71
2022/05/11 00:33:17;;;;;;;15.13;6.00;;;15.00;99.90;;;;;;5030558;28;20402;-70
2022/05/11 00:36:21;;;;;;;10.75;5.30;;;15.10;99.90;;;;;;5030241;28;20044;-71
2022/05/11 00:39:24;;;;;;;12.13;5.18;;;15.00;99.90;;;;;;5030958;28;20372;-71
2022/05/11 00:42:30;;;;;;;11.77;5.45;;;15.00;99.90;;;;;;5034590;28;20412;-71
2022/05/11 00:45:34;;;;;;;16.88;5.78;;;15.00;99.90;;;;;;5034093;28;20056;-71
2022/05/11 00:52:26;;;;;;;14.60;6.10;;;14.90;99.90;;;;;;5034740;28;20053;-70
2022/05/11 00:55:37;;;;;;;18.30;6.10;;;14.90;99.90;;;;;;5034006;28;20045;-70
2022/05/11 00:58:46;;;;;;;13.35;6.13;;;14.90;99.90;;;;;;5034326;28;20048;-70
2022/05/11 01:01:51;;;;;;;10.93;6.75;;;14.90;99.90;;;;;;5034149;28;20045;-70
2022/05/11 01:05:01;;;;;;;10.52;6.90;;;15.00;99.90;;;;;;5033679;28;20049;-70
2022/05/11 01:08:06;;;;;;;15.32;6.63;;;15.00;99.90;;;;;;5034012;28;20044;-70
2022/05/11 01:11:11;;;;;;;13.50;6.43;;;14.90;99.90;;;;;;5033913;28;20040;-70
2022/05/11 01:14:18;;;;;;;18.08;7.30;;;14.90;99.90;;;;;;5033669;28;20048;-70
2022/05/11 01:17:24;;;;;;;18.42;6.90;;;14.90;99.90;;;;;;5033529;28;20048;-70
2022/05/11 01:20:33;;;;;;;14.73;7.60;;;14.80;99.90;;;;;;5033662;28;20060;-70
2022/05/11 01:23:55;;;;;;;16.95;6.85;;;14.80;99.90;;;;;;5033606;28;20400;-70
2022/05/11 01:27:19;;;;;;;19.38;8.40;;;14.80;99.90;;;;;;5033538;28;20044;-70
2022/05/11 01:30:23;;;;;;;14.57;7.47;;;14.80;99.90;;;;;;5033759;28;20408;-70
2022/05/11 01:33:29;;;;;;;15.82;8.10;;;14.80;99.90;;;;;;5033396;28;20052;-70
2022/05/11 01:36:34;;;;;;;13.32;7.90;;;14.80;99.90;;;;;;5033143;28;20499;-70
2022/05/11 01:39:38;;;;;;;17.63;8.05;;;14.80;99.90;;;;;;5033347;28;20048;-70
2022/05/11 01:42:42;;;;;;;16.90;8.05;;;14.80;99.90;;;;;;5033377;28;20052;-70
2022/05/11 01:45:46;;;;;;;11.77;7.32;;;14.80;99.90;;;;;;5033048;28;20511;-70
2022/05/11 01:48:51;;;;;;;16.38;7.30;;;14.80;99.90;;;;;;5032594;28;20397;-70
2022/05/11 01:51:55;;;;;;;14.38;7.57;;;14.80;99.90;;;;;;5032368;28;20045;-70
2022/05/11 01:54:59;;;;;;;16.55;7.28;;;14.80;99.90;;;;;;5033068;28;20056;-70
2022/05/11 01:58:06;;;;;;;11.95;7.25;;;14.80;99.90;;;;;;5032675;28;20056;-70
2022/05/11 02:01:10;;;;;;;18.52;8.57;;;14.80;99.90;;;;;;5033072;28;20044;-70
2022/05/11 02:07:49;;;;;;;14.90;7.65;;;14.80;99.90;;;;;;5032257;28;20049;-70
2022/05/11 02:10:53;;;;;;;16.92;7.35;;;14.70;99.90;;;;;;5032616;28;20044;-70
2022/05/11 02:13:58;;;;;;;19.83;8.07;;;14.70;99.90;;;;;;5032562;28;20060;-70
2022/05/11 02:17:03;;;;;;;11.75;7.45;;;14.70;99.90;;;;;;5032095;28;20057;-70
2022/05/11 02:20:10;;;;;;;15.13;7.30;;;14.60;99.90;;;;;;5032206;28;20072;-70
2022/05/11 02:23:16;;;;;;;18.30;8.15;;;14.50;99.90;;;;;;5032408;28;20052;-70
2022/05/11 02:26:20;;;;;;;17.42;8.18;;;14.40;99.90;;;;;;5031799;28;20052;-70
2022/05/11 02:29:24;;;;;;;14.02;8.05;;;14.40;99.90;;;;;;5031859;28;20048;-70
2022/05/11 02:32:28;;;;;;;18.60;8.30;;;14.40;99.90;;;;;;5032200;28;20503;-71
2022/05/11 02:35:33;;;;;;;20.30;7.88;;;14.40;99.90;;;;;;5031804;28;20052;-70
2022/05/11 02:38:40;;;;;;;23.83;9.50;;;14.40;99.90;;;;;;5031980;28;20731;-71
2022/05/11 02:41:44;;;;;;;17.75;9.02;;;14.20;99.90;;;;;;5032065;28;20068;-71
2022/05/11 02:44:49;;;;;;;14.77;8.40;;;14.00;99.90;;;;;;5031321;28;20044;-70
2022/05/11 02:47:56;;;;;;;20.15;9.85;;;13.80;99.90;;;;;;5031313;28;20400;-71
2022/05/11 02:51:03;;;;;;;17.73;8.85;;;13.60;99.90;;;;;;5031587;28;20040;-70
2022/05/11 02:54:06;;;;;;;16.80;9.73;;;13.40;99.90;;;;;;5031310;28;20088;-70
2022/05/11 02:57:10;;;;;;;21.27;9.93;;;13.30;99.90;;;;;;5031261;28;20049;-70
2022/05/11 03:00:17;;;;;;;17.55;9.63;;;13.20;99.90;;;;;;5031735;28;20060;-70
2022/05/11 03:03:21;;;;;;;23.60;12.65;;;13.10;99.90;;;;;;5030737;28;20049;-70
2022/05/11 03:06:25;;;;;;;23.52;11.90;;;13.00;99.90;;;;;;5030797;28;20079;-70
2022/05/11 03:09:29;;;;;;;26.52;14.00;;;12.80;99.90;;;;;;5031196;28;20053;-70
2022/05/11 03:12:34;;;;;;;22.45;14.50;;;12.60;99.90;;;;;;5031375;28;20040;-70
2022/05/11 03:15:39;;;;;;;21.42;12.65;;;12.40;99.90;;;;;;5031593;28;20517;-70
2022/05/11 03:18:43;;;;;;;23.58;14.15;;;12.30;99.90;;;;;;5031088;28;20048;-70
2022/05/11 03:21:48;;;;;;;23.50;15.20;;;12.20;99.90;;;;;;5031240;28;20056;-70
2022/05/11 03:24:52;;;;;;;27.13;15.40;;;12.00;99.90;;;;;;5031287;28;20048;-70
2022/05/11 03:27:56;;;;;;;25.65;15.68;;;12.00;99.90;;;;;;5030552;28;20049;-70
2022/05/11 03:31:00;;;;;;;29.20;16.88;;;12.00;99.90;;;;;;5030750;28;20052;-70
2022/05/11 03:37:28;;;;;;;29.05;17.77;;;12.00;99.90;;;;;;5030751;28;20518;-70
2022/05/11 03:40:32;;;;;;;31.05;17.23;;;12.00;99.90;;;;;;5031453;28;20526;-70
2022/05/11 03:43:36;;;;;;;42.53;19.83;;;12.00;99.90;;;;;;5030847;28;20052;-70
2022/05/11 03:46:40;;;;;;;33.83;17.42;;;12.00;99.90;;;;;;5030476;28;20053;-70
2022/05/11 03:49:45;;;;;;;28.80;16.95;;;12.00;99.90;;;;;;5031004;28;20044;-70
2022/05/11 03:52:50;;;;;;;35.45;19.52;;;12.00;99.90;;;;;;5030939;28;20036;-70
2022/05/11 03:55:54;;;;;;;32.53;18.60;;;12.00;99.90;;;;;;5030674;28;20048;-70
2022/05/11 03:58:58;;;;;;;30.58;18.95;;;12.10;99.90;;;;;;5030615;28;20511;-70
2022/05/11 04:02:02;;;;;;;33.03;17.98;;;12.10;99.90;;;;;;5031051;28;20052;-70
2022/05/11 04:05:07;;;;;;;32.28;19.65;;;12.10;99.90;;;;;;5030536;28;20052;-70
2022/05/11 04:08:11;;;;;;;32.03;18.90;;;12.10;99.90;;;;;;5030152;28;20388;-70
2022/05/11 04:11:15;;;;;;;26.17;16.50;;;12.10;99.90;;;;;;5030574;28;20040;-70
2022/05/11 04:14:19;;;;;;;25.73;15.90;;;12.20;99.90;;;;;;5031482;28;20048;-70
2022/05/11 04:17:24;;;;;;;24.48;15.73;;;12.10;99.90;;;;;;5034001;28;20052;-70
2022/05/11 04:20:27;;;;;;;28.77;17.27;;;12.20;99.90;;;;;;5034724;28;20056;-70
2022/05/11 04:23:31;;;;;;;29.27;17.55;;;12.20;99.90;;;;;;5034304;28;20488;-70
2022/05/11 04:26:35;;;;;;;30.98;16.60;;;12.20;99.90;;;;;;5034435;28;20052;-70
2022/05/11 04:29:40;;;;;;;26.10;17.33;;;12.30;99.90;;;;;;5034568;28;20049;-70
2022/05/11 04:32:44;;;;;;;23.73;15.98;;;12.30;99.90;;;;;;5034870;28;20045;-70
2022/05/11 04:35:48;;;;;;;25.50;15.57;;;12.40;99.90;;;;;;5034749;28;20071;-70
2022/05/11 04:38:53;;;;;;;26.98;17.02;;;12.50;99.90;;;;;;5034651;28;20392;-70
2022/05/11 04:41:58;;;;;;;34.25;17.67;;;12.50;99.90;;;;;;5034212;28;20056;-70
2022/05/11 04:45:02;;;;;;;31.10;16.02;;;12.60;99.90;;;;;;5034406;28;20048;-70
2022/05/11 04:48:06;;;;;;;31.50;16.52;;;12.70;99.90;;;;;;5034081;28;20049;-70
2022/05/11 04:51:11;;;;;;;26.83;14.40;;;13.70;99.90;;;;;;5034136;28;20056;-70
2022/05/11 04:54:16;;;;;;;21.00;12.80;;;16.00;99.90;;;;;;5034001;28;20044;-70
2022/05/11 04:57:21;;;;;;;21.20;12.90;;;18.20;99.90;;;;;;5034073;28;20033;-71
2022/05/11 05:00:25;;;;;;;25.20;13.23;;;19.90;99.90;;;;;;5034139;28;20507;-70
2022/05/11 05:03:29;;;;;;;22.17;12.50;;;20.80;99.90;;;;;;5032216;28;20064;-70
2022/05/11 05:06:34;;;;;;;19.40;12.35;;;21.70;99.90;;;;;;5032930;28;20223;-71
2022/05/11 05:09:38;;;;;;;21.60;11.60;;;22.50;99.90;;;;;;5033410;28;20041;-71
2022/05/11 05:12:44;;;;;;;16.13;10.15;;;22.70;99.90;;;;;;5033414;28;20052;-71
2022/05/11 05:15:56;;;;;;;17.77;10.85;;;22.70;99.90;;;;;;5033233;28;20061;-71
2022/05/11 05:19:01;;;;;;;18.33;9.63;;;23.10;99.90;;;;;;5033128;28;20052;-71
2022/05/11 05:22:05;;;;;;;16.27;9.70;;;23.70;99.90;;;;;;5033218;28;20056;-71
2022/05/11 05:25:10;;;;;;;14.55;8.48;;;24.00;99.90;;;;;;5032793;28;20044;-71
2022/05/11 05:31:37;;;;;;;14.15;8.73;;;24.30;99.90;;;;;;5032885;28;20041;-71
2022/05/11 05:34:45;;;;;;;17.40;9.45;;;24.90;99.90;;;;;;5020527;28;20048;-71
2022/05/11 05:37:50;;;;;;;16.65;9.27;;;24.90;99.90;;;;;;5019742;28;20040;-71
2022/05/11 05:40:55;;;;;;;16.35;8.45;;;24.20;99.90;;;;;;5032810;28;20040;-71
2022/05/11 05:43:59;;;;;;;13.82;8.80;;;24.40;99.90;;;;;;5032565;28;20393;-71
2022/05/11 05:47:08;;;;;;;16.38;8.82;;;24.30;99.90;;;;;;5032382;28;20052;-71
2022/05/11 05:50:12;;;;;;;14.98;8.73;;;23.20;99.90;;;;;;5032762;28;20496;-71
2022/05/11 05:53:20;;;;;;;16.42;9.07;;;23.00;99.90;;;;;;5032670;28;20049;-71
2022/05/11 05:56:24;;;;;;;14.18;9.48;;;22.80;99.90;;;;;;5032326;28;20052;-72
2022/05/11 05:59:28;;;;;;;18.77;9.40;;;22.20;99.90;;;;;;5032680;28;20037;-71
2022/05/11 06:02:32;;;;;;;16.08;9.57;;;22.60;99.90;;;;;;5032617;28;20053;-71
2022/05/11 06:05:37;;;;;;;18.60;9.15;;;21.40;99.90;;;;;;5032545;28;20049;-71
2022/05/11 06:08:40;;;;;;;20.52;9.18;;;21.90;99.90;;;;;;5020213;28;20052;-71
2022/05/11 06:11:44;;;;;;;14.48;8.48;;;22.10;99.90;;;;;;5031952;28;20060;-71
2022/05/11 06:14:49;;;;;;;22.15;9.57;;;22.70;99.90;;;;;;5032262;28;20044;-71
2022/05/11 06:17:53;;;;;;;20.98;8.90;;;23.70;99.90;;;;;;5031134;28;20049;-72
2022/05/11 06:20:57;;;;;;;15.85;9.40;;;23.00;99.90;;;;;;5037883;28;20396;-71
2022/05/11 06:24:02;;;;;;;21.35;10.45;;;21.90;99.90;;;;;;5047347;28;20502;-72
2022/05/11 06:27:15;;;;;;;15.20;9.02;;;21.50;99.90;;;;;;5050320;28;20056;-71
2022/05/11 06:30:19;;;;;;;19.27;10.75;;;22.60;99.90;;;;;;5046780;28;20048;-71
2022/05/11 06:33:23;;;;;;;23.27;15.80;;;22.00;99.90;;;;;;5031747;28;20045;-71
2022/05/11 06:36:27;;;;;;;15.13;9.23;;;22.70;99.90;;;;;;5038939;28;20048;-72
2022/05/11 06:39:34;;;;;;;19.63;11.00;;;23.30;99.90;;;;;;5035767;28;20044;-72
2022/05/11 06:42:38;;;;;;;19.95;10.10;;;23.80;99.90;;;;;;5047389;28;20044;-72
2022/05/11 06:45:42;;;;;;;19.27;8.93;;;24.90;99.90;;;;;;5050489;28;20048;-72
2022/05/11 06:48:47;;;;;;;16.10;8.82;;;25.10;98.90;;;;;;5050865;28;20082;-72
2022/05/11 06:51:51;;;;;;;20.42;10.10;;;24.30;99.60;;;;;;5051051;28;20048;-72
2022/05/11 07:01:41;;;;;;;23.25;14.77;;;28.00;97.20;;;;;;5037703;28;20040;-72
2022/05/11 07:04:46;;;;;;;23.02;14.48;;;27.90;96.50;;;;;;5046123;28;20044;-72
2022/05/11 07:07:53;;;;;;;16.98;12.48;;;28.80;95.90;;;;;;5047794;28;20036;-72
2022/05/11 07:14:20;;;;;;;12.18;6.55;;;30.30;94.00;;;;;;5051384;28;20040;-70
2022/05/11 07:17:35;;;;;;;12.73;5.38;;;30.90;93.30;;;;;;5041073;28;20060;-70
2022/05/11 07:20:39;;;;;;;50.00;31.67;;;31.20;92.10;;;;;;5048356;28;20044;-70
2022/05/11 07:23:43;;;;;;;20.48;10.43;;;31.00;91.90;;;;;;5028335;28;20044;-70
2022/05/11 07:26:47;;;;;;;14.95;8.63;;;31.60;91.50;;;;;;5035210;28;20044;-70
2022/05/11 07:29:52;;;;;;;13.15;7.55;;;32.00;91.10;;;;;;5050965;28;20041;-69
2022/05/11 07:32:57;;;;;;;11.30;5.82;;;32.90;90.10;;;;;;5035783;28;20036;-69
2022/05/11 07:36:01;;;;;;;10.27;4.70;;;32.60;88.70;;;;;;5057888;28;20051;-71
2022/05/11 07:39:05;;;;;;;14.75;5.43;;;32.40;88.00;;;;;;5060674;28;20047;-70
2022/05/11 07:42:09;;;;;;;14.77;9.00;;;33.00;87.30;;;;;;5044243;28;20047;-71
2022/05/11 07:45:16;;;;;;;17.35;9.35;;;33.70;86.60;;;;;;5051439;28;20048;-71
2022/05/11 07:48:21;;;;;;;17.58;8.75;;;34.30;85.40;;;;;;5045452;28;20036;-70
2022/05/11 07:51:24;;;;;;;16.27;7.47;;;34.80;84.20;;;;;;5050361;28;20494;-71
2022/05/11 07:54:29;;;;;;;17.35;5.43;;;35.50;83.40;;;;;;5053246;28;20044;-71
2022/05/11 08:01:10;;;;;;;9.70;4.78;;;36.20;81.00;;;;;;4977994;28;20473;-73
2022/05/11 08:04:14;;;;;;;11.70;4.70;;;35.40;80.20;;;;;;5017681;28;20055;-72
2022/05/11 08:07:25;;;;;;;9.15;4.30;;;35.60;80.60;;;;;;5041803;28;20056;-73
2022/05/11 08:10:33;;;;;;;9.63;4.80;;;36.40;79.10;;;;;;5028337;28;20039;-71
2022/05/11 08:13:37;;;;;;;11.57;4.28;;;36.40;78.30;;;;;;5045067;28;20047;-71
2022/05/11 08:16:42;;;;;;;7.10;4.28;;;37.10;75.80;;;;;;5044002;28;20379;-70
2022/05/11 08:19:47;;;;;;;8.38;4.35;;;37.80;75.90;;;;;;5046327;28;20502;-71
2022/05/11 08:22:52;;;;;;;9.38;4.50;;;37.30;74.00;;;;;;5042647;28;20044;-71
2022/05/11 08:25:57;;;;;;;10.95;4.70;;;37.80;74.20;;;;;;5047645;28;20048;-73
2022/05/11 08:29:01;;;;;;;9.02;4.97;;;37.90;73.90;;;;;;5057165;28;20487;-71
2022/05/11 08:35:29;;;;;;;12.52;4.57;;;38.10;73.30;;;;;;5050629;28;20036;-70
2022/05/11 08:38:41;;;;;;;11.07;4.85;;;38.60;73.20;;;;;;5026908;28;20048;-72
2022/05/11 08:41:49;;;;;;;10.88;4.00;;;39.00;72.50;;;;;;5050955;28;20045;-72
2022/05/11 08:44:54;;;;;;;10.70;4.57;;;38.80;71.70;;;;;;5034130;28;20056;-71
2022/05/11 08:48:06;;;;;;;12.13;5.20;;;39.40;71.10;;;;;;5048140;28;20380;-72
2022/05/11 08:51:18;;;;;;;6.97;3.97;;;39.40;72.20;;;;;;5027384;28;20879;-70
2022/05/11 08:54:50;;;;;;;9.88;4.90;;;39.80;70.10;;;;;;5041686;28;20040;-71
2022/05/11 08:57:56;;;;;;;11.38;4.32;;;40.40;70.80;;;;;;5033836;28;20047;-73
2022/05/11 09:01:07;;;;;;;9.45;4.40;;;40.80;69.70;;;;;;5048137;28;20412;-75
2022/05/11 09:04:15;;;;;;;12.63;5.15;;;41.10;68.90;;;;;;5053647;28;20056;-73
2022/05/11 09:07:27;;;;;;;12.90;4.60;;;41.10;68.60;;;;;;5053370;28;20060;-71
2022/05/11 09:10:37;;;;;;;10.30;4.85;;;41.70;67.00;;;;;;5052470;28;20040;-74
2022/05/11 09:13:42;;;;;;;10.10;4.60;;;41.60;66.10;;;;;;5056767;28;20040;-74
2022/05/11 09:16:50;;;;;;;10.73;4.43;;;40.50;66.40;;;;;;5058735;28;20060;-74
2022/05/11 09:20:06;;;;;;;10.40;4.93;;;40.80;67.00;;;;;;5057751;28;20052;-74
2022/05/11 09:23:10;;;;;;;8.80;5.35;;;38.70;66.30;;;;;;5060861;28;20047;-71
2022/05/11 09:26:16;;;;;;;14.32;5.15;;;38.50;68.40;;;;;;5043617;28;20040;-74
2022/05/11 09:29:32;;;;;;;7.03;4.45;;;39.70;69.90;;;;;;5039379;28;20036;-73
2022/05/11 09:32:38;;;;;;;12.27;4.72;;;41.30;68.20;;;;;;5047280;28;20032;-74
2022/05/11 09:35:45;;;;;;;9.00;5.40;;;42.50;66.80;;;;;;5026323;28;20040;-73
2022/05/11 09:38:49;;;;;;;13.90;5.25;;;42.30;66.50;;;;;;5036419;28;20040;-72
2022/05/11 09:42:02;;;;;;;8.57;4.38;;;42.50;65.90;;;;;;5034106;28;20396;-71
2022/05/11 09:45:06;;;;;;;10.02;4.90;;;43.50;63.40;;;;;;5036256;28;20064;-70
2022/05/11 09:48:22;;;;;;;11.52;4.82;;;44.10;64.70;;;;;;5036822;28;20376;-73
2022/05/11 09:51:35;;;;;;;8.90;4.45;;;44.80;63.30;;;;;;5058144;28;20028;-72
2022/05/11 09:54:46;;;;;;;9.63;4.13;;;45.20;62.10;;;;;;5047109;28;20048;-74
2022/05/11 09:57:58;;;;;;;7.75;4.78;;;44.80;61.00;;;;;;5049426;28;20051;-70
2022/05/11 10:01:15;;;;;;;10.85;5.18;;;44.70;62.10;;;;;;5048925;28;20041;-74
2022/05/11 10:04:28;;;;;;;10.73;4.90;;;38.00;62.80;;;;;;5043209;28;20040;-73
2022/05/11 10:07:55;;;;;;;12.40;4.47;;;39.00;63.70;;;;;;5047862;28;20044;-73
2022/05/11 10:11:12;;;;;;;8.07;4.80;;;40.00;62.80;;;;;;5033790;28;20380;-74
2022/05/11 10:24:40;;;;;;;9.38;3.97;;;39.40;61.20;;;;;;5047818;28;20048;-73
2022/05/11 10:27:47;;;;;;;7.57;4.10;;;38.90;62.30;;;;;;5045997;28;20053;-74
2022/05/11 10:31:09;;;;;;;10.23;4.45;;;41.10;62.10;;;;;;5035558;28;20396;-73
2022/05/11 10:34:16;;;;;;;12.35;4.72;;;41.70;62.50;;;;;;5040730;28;20380;-74
2022/05/11 10:37:56;;;;;;;7.10;3.88;;;41.90;61.40;;;;;;5045098;28;20120;-76
2022/05/11 10:41:09;;;;;;;;;;;42.90;61.20;;;;;;5057110;28;20072;-74
2022/05/11 10:44:38;;;;;;;8.60;3.97;;;42.10;61.10;;;;;;5047941;28;19909;-75
2022/05/11 10:48:08;;;;;;;6.75;3.92;;;42.60;59.70;;;;;;5054560;28;20040;-71
2022/05/11 10:51:19;;;;;;;7.28;4.13;;;41.10;60.80;;;;;;5054093;28;20044;-75
2022/05/11 10:54:45;;;;;;;7.93;4.22;;;42.10;61.80;;;;;;5040774;28;20685;-74
2022/05/11 10:58:18;;;;;;;12.20;5.22;;;39.50;62.40;;;;;;5042084;28;20057;-72
2022/05/11 11:01:28;;;;;;;8.73;4.75;;;41.50;63.30;;;;;;5035067;28;20060;-74
2022/05/11 11:04:42;;;;;;;8.73;4.40;;;42.50;62.70;;;;;;5047350;28;20063;-73
2022/05/11 11:12:33;;;;;;;8.93;4.60;;;39.10;60.50;;;;;;5051637;28;20383;-73
2022/05/11 11:15:42;;;;;;;8.57;4.10;;;39.40;63.90;;;;;;5048704;28;20040;-72
2022/05/11 11:18:49;;;;;;;9.63;3.87;;;40.20;62.00;;;;;;5065528;28;20035;-74
2022/05/11 11:21:55;;;;;;;12.85;4.50;;;40.70;62.00;;;;;;5049354;28;20487;-74
2022/05/11 11:25:12;;;;;;;10.40;4.40;;;41.30;61.60;;;;;;5058367;28;20055;-73
2022/05/11 11:28:16;;;;;;;13.73;4.20;;;41.50;61.00;;;;;;5056971;28;20040;-73
2022/05/11 11:31:22;;;;;;;8.60;3.92;;;41.60;61.30;;;;;;5037384;28;20040;-73
2022/05/11 11:34:33;;;;;;;10.18;4.43;;;41.80;60.50;;;;;;5047169;28;20040;-75
2022/05/11 11:37:43;;;;;;;11.02;4.25;;;41.30;60.40;;;;;;5045171;28;20040;-73
2022/05/11 11:41:19;;;;;;;10.68;4.20;;;41.10;61.50;;;;;;5052642;28;20055;-73
2022/05/11 11:44:48;;;;;;;16.40;4.57;;;41.00;59.70;;;;;;5048272;28;20387;-72
2022/05/11 11:48:04;;;;;;;9.55;4.35;;;41.20;60.60;;;;;;5051678;28;20043;-72
2022/05/11 11:51:12;;;;;;;10.25;4.18;;;41.50;59.90;;;;;;5045109;28;20040;-72
2022/05/11 11:54:46;;;;;;;7.55;3.75;;;41.30;59.50;;;;;;5043039;28;20502;-73
2022/05/11 11:58:19;;;;;;;5.88;3.20;;;42.20;61.00;;;;;;5045442;28;20060;-73
2022/05/11 12:01:25;;;;;;;13.18;4.55;;;41.90;59.90;;;;;;5044561;28;20036;-72
2022/05/11 12:04:38;;;;;;;8.50;4.30;;;41.50;60.80;;;;;;5043201;28;20055;-73
2022/05/11 12:18:28;;;;;;;7.18;4.18;;;40.80;61.00;;;;;;5045725;28;20044;-72
2022/05/11 12:21:37;;;;;;;8.27;4.38;;;40.50;60.20;;;;;;5031312;28;20040;-74
2022/05/11 12:24:44;;;;;;;11.45;4.65;;;40.30;61.80;;;;;;5047408;28;20051;-73
2022/05/11 12:27:50;;;;;;;8.20;3.75;;;39.80;61.20;;;;;;5047644;28;20040;-74
2022/05/11 12:30:54;;;;;;;8.65;3.83;;;39.80;61.50;;;;;;5046742;28;20038;-72
2022/05/11 12:34:00;;;;;;;15.07;4.53;;;39.50;60.70;;;;;;5038944;28;20036;-73
2022/05/11 12:37:20;;;;;;;9.00;3.90;;;39.10;61.70;;;;;;5046383;28;20052;-73
2022/05/11 12:40:27;;;;;;;10.85;4.68;;;38.60;63.30;;;;;;5052669;28;20047;-72
2022/05/11 12:43:36;;;;;;;10.32;4.13;;;38.20;63.20;;;;;;5032763;28;20036;-73
2022/05/11 12:46:42;;;;;;;13.77;5.13;;;38.10;62.30;;;;;;5025360;28;20044;-72
2022/05/11 12:49:47;;;;;;;12.48;4.20;;;36.90;62.80;;;;;;5051437;28;20049;-72
2022/05/11 12:53:21;;;;;;;12.43;5.03;;;35.70;65.60;;;;;;5051746;28;20479;-71
2022/05/11 12:56:32;;;;;;;9.70;5.15;;;35.40;66.70;;;;;;5048274;28;20040;-71
2022/05/11 12:59:37;;;;;;;14.95;5.07;;;35.00;67.70;;;;;;5044461;28;20043;-71
2022/05/11 13:02:42;;;;;;;15.40;6.90;;;35.10;65.80;;;;;;5050837;28;20495;-72
2022/05/11 13:05:46;;;;;;;8.20;5.20;;;35.30;64.90;;;;;;5046944;28;20068;-72
2022/05/11 13:08:53;;;;;;;10.43;4.95;;;35.70;64.50;;;;;;5047574;28;20043;-74
2022/05/11 13:11:58;;;;;;;8.55;5.10;;;35.70;66.30;;;;;;5070041;28;20055;-73
2022/05/11 13:15:03;;;;;;;10.48;5.32;;;35.60;65.80;;;;;;5049889;28;20392;-73
2022/05/11 13:18:12;;;;;;;14.90;5.35;;;35.10;66.30;;;;;;5057103;28;20043;-73
2022/05/11 13:21:35;;;;;;;10.60;5.00;;;34.90;65.80;;;;;;5060033;28;20044;-74
2022/05/11 13:24:50;;;;;;;10.93;5.50;;;34.30;66.00;;;;;;5050369;28;20059;-75
2022/05/11 13:28:20;;;;;;;9.20;5.03;;;34.00;66.50;;;;;;5061213;28;20032;-75
2022/05/11 13:31:44;;;;;;;13.85;5.85;;;33.90;66.80;;;;;;5059934;28;20040;-74
2022/05/11 13:34:48;;;;;;;9.73;5.10;;;33.70;68.30;;;;;;5052647;28;20056;-73
2022/05/11 13:38:08;;;;;;;11.02;5.32;;;33.50;67.10;;;;;;5058957;28;20056;-74
2022/05/11 13:41:16;;;;;;;12.70;5.03;;;33.60;68.70;;;;;;5059239;28;20044;-75
2022/05/11 13:44:46;;;;;;;13.25;5.57;;;33.40;68.40;;;;;;5032754;28;20041;-73
2022/05/11 13:48:13;;;;;;;12.73;5.88;;;32.90;68.80;;;;;;5055648;28;20380;-73
2022/05/11 13:51:26;;;;;;;12.43;5.70;;;32.80;68.80;;;;;;5057692;28;20039;-73
2022/05/11 13:55:02;;;;;;;14.95;5.47;;;32.60;70.20;;;;;;5046707;28;20052;-73
2022/05/11 13:58:28;;;;;;;11.82;6.03;;;32.50;70.90;;;;;;5055624;28;20054;-72
2022/05/11 14:01:47;;;;;;;9.85;5.90;;;32.30;69.50;;;;;;5053497;28;20044;-74
2022/05/11 14:04:51;;;;;;;9.75;5.60;;;32.20;70.70;;;;;;5065085;28;20048;-73
2022/05/11 14:07:55;;;;;;;11.02;5.50;;;32.00;72.50;;;;;;5053150;28;20067;-74
2022/05/11 14:10:59;;;;;;;12.40;5.80;;;31.90;72.70;;;;;;5072007;28;20051;-74
2022/05/11 14:14:03;;;;;;;13.10;5.35;;;31.90;73.30;;;;;;5050334;28;20411;-74
2022/05/11 14:17:11;;;;;;;13.82;5.45;;;31.50;73.10;;;;;;5037494;28;20041;-74
2022/05/11 14:20:25;;;;;;;8.32;5.45;;;31.20;73.40;;;;;;5039527;28;20056;-74
2022/05/11 14:23:29;;;;;;;11.50;5.95;;;31.10;72.00;;;;;;5036196;28;20936;-74
2022/05/11 14:26:34;;;;;;;12.32;6.00;;;31.20;73.30;;;;;;5051975;28;20044;-74
2022/05/11 14:29:38;;;;;;;15.05;5.72;;;31.10;73.60;;;;;;5056620;28;20048;-73
2022/05/11 14:32:46;;;;;;;11.32;5.28;;;31.00;73.00;;;;;;5041516;28;20113;-72
2022/05/11 14:35:51;;;;;;;17.65;4.90;;;30.90;73.20;;;;;;5057512;28;20038;-73
2022/05/11 14:38:56;;;;;;;11.93;4.45;;;30.70;74.40;;;;;;5050836;28;20036;-73
2022/05/11 14:42:00;;;;;;;9.25;3.90;;;30.60;75.60;;;;;;5054189;28;20384;-74
2022/05/11 14:45:06;;;;;;;11.32;4.03;;;30.40;73.50;;;;;;5059654;28;20044;-74
2022/05/11 14:48:18;;;;;;;12.38;4.05;;;30.00;74.10;;;;;;5047255;28;20048;-73
2022/05/11 14:51:23;;;;;;;10.45;4.28;;;29.60;73.50;;;;;;5057916;28;20039;-74
2022/05/11 14:54:27;;;;;;;8.32;3.70;;;29.10;74.00;;;;;;5054231;28;20075;-75
2022/05/11 15:04:32;;;;;;;9.80;3.78;;;28.80;74.60;;;;;;5053835;28;20219;-73
2022/05/11 15:07:36;;;;;;;13.20;4.43;;;28.60;77.50;;;;;;5050476;28;20400;-75
2022/05/11 15:10:41;;;;;;;12.40;3.78;;;28.40;77.10;;;;;;5051238;28;20491;-74
2022/05/11 15:13:45;;;;;;;5.22;3.42;;;28.30;77.70;;;;;;5051019;28;20044;-74
2022/05/11 15:16:49;;;;;;;8.15;3.60;;;28.20;77.50;;;;;;5050947;28;20056;-73
2022/05/11 15:19:54;;;;;;;5.22;3.50;;;28.10;77.30;;;;;;5050527;28;20044;-74
2022/05/11 15:22:58;;;;;;;13.77;3.88;;;27.90;77.50;;;;;;5033938;28;20610;-74
2022/05/11 15:26:04;;;;;;;8.50;3.45;;;27.80;77.60;;;;;;5051287;28;20047;-73
2022/05/11 15:29:08;;;;;;;13.45;4.00;;;27.50;75.50;;;;;;5050768;28;20051;-74
2022/05/11 15:32:23;;;;;;;9.45;3.28;;;27.50;77.30;;;;;;5051802;28;20048;-73
2022/05/11 15:35:29;;;;;;;8.50;3.50;;;27.30;76.90;;;;;;5050633;28;20048;-74
2022/05/11 15:38:33;;;;;;;11.43;3.67;;;27.30;76.60;;;;;;5050872;28;20051;-74
2022/05/11 15:41:38;;;;;;;10.00;3.83;;;27.30;76.30;;;;;;5051323;28;20048;-73
2022/05/11 15:44:43;;;;;;;7.80;3.67;;;27.10;76.30;;;;;;5050636;28;20048;-73
2022/05/11 15:47:47;;;;;;;9.48;3.53;;;27.00;77.80;;;;;;5050214;28;20053;-74
2022/05/11 15:50:51;;;;;;;9.93;3.80;;;26.90;76.90;;;;;;5050527;28;20040;-74
2022/05/11 15:53:55;;;;;;;8.25;3.63;;;26.90;77.80;;;;;;5050717;28;20048;-74
2022/05/11 15:56:59;;;;;;;10.13;3.50;;;26.80;77.60;;;;;;5049674;28;20048;-75
2022/05/11 16:00:09;;;;;;;14.88;3.80;;;26.70;78.60;;;;;;5037695;28;20056;-74
2022/05/11 16:03:16;;;;;;;11.85;3.42;;;26.70;77.70;;;;;;5050698;28;20052;-74
2022/05/11 16:06:20;;;;;;;11.27;3.75;;;26.40;78.70;;;;;;5049882;28;20056;-74
2022/05/11 16:09:24;;;;;;;9.82;4.00;;;26.30;80.10;;;;;;5050108;28;20062;-72
2022/05/11 16:12:28;;;;;;;10.95;4.05;;;26.20;80.40;;;;;;5050645;28;20299;-74
2022/05/11 16:15:33;;;;;;;8.82;4.10;;;26.00;81.70;;;;;;5050316;28;20048;-72
2022/05/11 16:22:00;;;;;;;9.27;3.50;;;25.70;83.80;;;;;;5050137;28;20040;-74
2022/05/11 16:25:05;;;;;;;12.77;3.80;;;25.80;84.70;;;;;;5050350;28;20048;-73
2022/05/11 16:28:10;;;;;;;7.90;3.80;;;25.70;84.40;;;;;;5049745;28;20395;-74
2022/05/11 16:31:13;;;;;;;14.75;3.90;;;25.60;84.90;;;;;;5050630;28;20040;-74
2022/05/11 16:34:19;;;;;;;9.32;3.70;;;25.60;84.80;;;;;;5050409;28;20052;-74
2022/05/11 16:37:23;;;;;;;13.43;3.25;;;25.40;85.50;;;;;;5049909;28;20388;-74
2022/05/11 16:40:30;;;;;;;9.10;3.72;;;25.30;85.00;;;;;;5049947;28;20044;-72
2022/05/11 16:43:34;;;;;;;10.93;4.03;;;25.10;83.90;;;;;;5049580;28;20052;-73
2022/05/11 16:46:39;;;;;;;9.48;3.85;;;24.90;85.20;;;;;;5048912;28;20503;-74
2022/05/11 16:49:49;;;;;;;12.40;4.00;;;25.00;86.40;;;;;;5049552;28;20049;-74
2022/05/11 16:52:53;;;;;;;6.40;3.13;;;25.00;86.40;;;;;;5049953;28;20040;-75
2022/05/11 16:55:57;;;;;;;9.52;4.00;;;24.90;86.60;;;;;;5049483;28;20392;-75
2022/05/11 16:59:01;;;;;;;8.82;3.88;;;24.90;86.50;;;;;;5049306;28;20040;-73
2022/05/11 17:02:05;;;;;;;11.00;3.70;;;24.50;84.40;;;;;;5050017;28;20045;-74
2022/05/11 17:05:11;;;;;;;10.55;4.03;;;24.40;84.30;;;;;;5049637;28;20048;-74
2022/05/11 17:08:16;;;;;;;11.63;3.65;;;24.30;84.30;;;;;;5048625;28;20510;-74
2022/05/11 17:11:20;;;;;;;9.18;3.53;;;24.10;85.00;;;;;;5049303;28;20048;-74
2022/05/11 17:14:27;;;;;;;9.75;3.38;;;24.00;85.20;;;;;;5049628;28;20044;-74